Time;durP1;ratioP1;P1;durP2;ratioP2;P2;SDS_P1;SDS_P2;PMS_P1;PMS_P2;Temp;Humidity;BMP_temperature;BMP_pressure;BME280_temperature;BME280_humidity;BME280_pressure;Samples;Min_cycle;Max_cycle;Signal;HPM_P1;HPM_P2
2022/04/06 00:00:54;;;;;;;8.30;1.50;;;9.70;99.90;;;;;;5049532;28;20068;-66
2022/04/06 00:03:22;;;;;;;8.23;1.48;;;9.60;99.90;;;;;;5053226;28;20037;-63
2022/04/06 00:05:50;;;;;;;7.15;1.60;;;9.60;99.90;;;;;;5058632;28;20049;-62
2022/04/06 00:08:18;;;;;;;7.22;1.85;;;9.60;99.90;;;;;;5057805;28;20068;-61
2022/04/06 00:10:46;;;;;;;13.57;1.50;;;9.60;99.90;;;;;;5067773;28;20064;-63
2022/04/06 00:13:14;;;;;;;13.77;1.83;;;9.60;99.90;;;;;;5061134;28;20040;-64
2022/04/06 00:15:42;;;;;;;5.35;1.75;;;9.50;99.90;;;;;;5051865;28;20053;-66
2022/04/06 00:18:09;;;;;;;10.48;1.90;;;9.50;99.90;;;;;;5054075;28;20052;-64
2022/04/06 00:20:37;;;;;;;7.18;1.40;;;9.50;99.90;;;;;;5069661;28;20567;-64
2022/04/06 00:23:05;;;;;;;9.82;1.48;;;9.50;99.90;;;;;;5069079;28;20068;-63
2022/04/06 00:25:32;;;;;;;12.98;2.00;;;9.50;99.90;;;;;;5049729;28;20427;-69
2022/04/06 00:28:00;;;;;;;15.63;2.00;;;9.50;99.90;;;;;;5053025;28;20051;-67
2022/04/06 00:30:28;;;;;;;9.02;1.73;;;9.50;99.90;;;;;;5055349;28;20045;-68
2022/04/06 00:32:56;;;;;;;6.75;1.80;;;9.50;99.90;;;;;;5049764;28;20419;-66
2022/04/06 00:35:29;;;;;;;13.27;2.47;;;9.50;99.90;;;;;;5058965;28;20052;-67
2022/04/06 00:38:02;;;;;;;7.50;1.85;;;9.50;99.90;;;;;;5060075;28;20500;-65
2022/04/06 00:40:32;;;;;;;8.20;1.50;;;9.40;99.90;;;;;;5051067;28;20502;-62
2022/04/06 00:43:00;;;;;;;;;;;9.40;99.90;;;;;;5051577;28;20056;-66
2022/04/06 00:45:28;;;;;;;7.53;1.73;;;9.40;99.90;;;;;;5054009;28;19921;-64
2022/04/06 00:47:55;;;;;;;13.43;1.75;;;9.40;99.90;;;;;;5049011;28;20041;-63
2022/04/06 00:50:24;;;;;;;10.68;1.25;;;9.40;99.90;;;;;;5066903;28;20052;-63
2022/04/06 00:52:56;;;;;;;9.80;1.77;;;9.40;99.90;;;;;;5051860;28;20213;-66
2022/04/06 00:55:31;;;;;;;16.42;3.17;;;9.40;99.90;;;;;;5050871;28;20056;-66
2022/04/06 00:58:00;;;;;;;7.97;1.45;;;9.40;99.90;;;;;;5052043;28;20052;-61
2022/04/06 01:00:28;;;;;;;6.18;1.40;;;9.40;99.90;;;;;;5050561;28;20393;-63
2022/04/06 01:02:56;;;;;;;6.32;1.63;;;9.40;99.90;;;;;;5047702;28;20416;-68
2022/04/06 01:05:25;;;;;;;8.23;1.77;;;9.40;99.90;;;;;;5065153;28;20044;-68
2022/04/06 01:07:55;;;;;;;12.80;1.40;;;9.40;99.90;;;;;;5064959;28;20044;-67
2022/04/06 01:10:23;;;;;;;8.70;1.42;;;9.40;99.90;;;;;;5046344;28;20033;-65
2022/04/06 01:12:50;;;;;;;5.65;1.20;;;9.40;99.90;;;;;;5048789;28;20052;-63
2022/04/06 01:15:18;;;;;;;7.28;1.50;;;9.40;99.90;;;;;;5068572;28;20047;-63
2022/04/06 01:17:46;;;;;;;10.75;1.13;;;9.40;99.90;;;;;;5052665;28;20048;-66
2022/04/06 01:20:14;;;;;;;8.77;1.40;;;9.40;99.90;;;;;;5057918;28;20488;-62
2022/04/06 01:22:41;;;;;;;8.70;1.77;;;9.50;99.90;;;;;;5048573;28;20048;-61
2022/04/06 01:25:09;;;;;;;13.43;1.98;;;9.50;99.90;;;;;;5064376;28;20439;-61
2022/04/06 01:27:37;;;;;;;8.25;1.40;;;9.50;99.90;;;;;;5049109;28;20053;-61
2022/04/06 01:30:06;;;;;;;6.50;1.20;;;9.50;99.90;;;;;;5066076;28;20055;-61
2022/04/06 01:32:35;;;;;;;8.20;1.20;;;9.50;99.90;;;;;;5063385;28;20045;-61
2022/04/06 01:35:05;;;;;;;4.07;1.07;;;9.50;99.90;;;;;;5068201;28;20044;-61
2022/04/06 01:37:34;;;;;;;7.10;0.80;;;9.50;99.90;;;;;;5068202;28;20048;-61
2022/04/06 01:40:05;;;;;;;4.07;0.73;;;9.50;99.90;;;;;;5070765;28;20049;-61
2022/04/06 01:42:32;;;;;;;4.55;0.60;;;9.50;99.90;;;;;;5057133;28;20480;-61
2022/04/06 01:45:00;;;;;;;4.78;0.60;;;9.60;99.90;;;;;;5051800;28;20037;-60
2022/04/06 01:47:28;;;;;;;4.05;0.90;;;9.60;99.90;;;;;;5062887;28;20045;-61
2022/04/06 01:52:42;;;;;;;9.10;0.95;;;9.60;99.90;;;;;;5052472;28;20048;-65
2022/04/06 01:55:12;;;;;;;2.85;0.70;;;9.60;99.90;;;;;;5051263;28;20175;-66
2022/04/06 01:57:41;;;;;;;1.98;0.60;;;9.60;99.90;;;;;;5056274;28;20049;-62
2022/04/06 02:00:13;;;;;;;5.23;0.50;;;9.70;99.90;;;;;;5051280;28;20049;-62
2022/04/06 02:02:45;;;;;;;1.83;0.47;;;9.70;99.90;;;;;;5049657;28;20053;-61
2022/04/06 02:05:14;;;;;;;2.13;0.50;;;9.70;99.90;;;;;;5063201;28;20044;-61
2022/04/06 02:07:42;;;;;;;4.35;1.13;;;9.70;99.90;;;;;;5071204;28;20044;-60
2022/04/06 02:10:10;;;;;;;1.55;0.30;;;9.60;99.90;;;;;;5049796;28;20396;-61
2022/04/06 02:12:38;;;;;;;1.67;0.30;;;9.60;99.90;;;;;;5051996;28;20049;-61
2022/04/06 02:15:10;;;;;;;1.42;0.43;;;9.60;99.90;;;;;;5061365;28;20472;-61
2022/04/06 02:17:38;;;;;;;0.95;0.43;;;9.60;99.90;;;;;;5071212;28;20048;-61
2022/04/06 02:20:06;;;;;;;1.48;0.30;;;9.60;99.90;;;;;;5071330;28;20045;-61
2022/04/06 02:22:35;;;;;;;1.98;0.20;;;9.60;99.90;;;;;;5064363;28;20045;-63
2022/04/06 02:25:02;;;;;;;0.85;0.28;;;9.60;99.90;;;;;;5053755;28;20388;-60
2022/04/06 02:27:31;;;;;;;1.63;0.25;;;9.60;99.90;;;;;;5055129;28;20045;-61
2022/04/06 02:29:58;;;;;;;0.95;0.28;;;9.60;99.90;;;;;;5053576;28;20064;-61
2022/04/06 02:32:26;;;;;;;2.92;0.50;;;9.60;99.90;;;;;;5054128;28;20396;-61
2022/04/06 02:34:53;;;;;;;1.65;0.40;;;9.60;99.90;;;;;;5054941;28;20056;-61
2022/04/06 02:37:21;;;;;;;6.60;0.70;;;9.60;99.90;;;;;;5054475;28;20055;-60
2022/04/06 02:39:49;;;;;;;2.80;0.47;;;9.60;99.90;;;;;;5054911;28;20048;-61
2022/04/06 02:42:17;;;;;;;4.90;0.50;;;9.60;99.90;;;;;;5054799;28;20049;-63
2022/04/06 02:44:45;;;;;;;7.22;0.80;;;9.60;99.90;;;;;;5054134;28;20499;-61
2022/04/06 02:47:12;;;;;;;2.78;0.47;;;9.60;99.90;;;;;;5054788;28;20045;-60
2022/04/06 02:49:40;;;;;;;2.17;1.15;;;9.60;99.90;;;;;;5054760;28;20056;-62
2022/04/06 02:52:08;;;;;;;1.65;0.50;;;9.60;99.90;;;;;;5053385;28;20053;-64
2022/04/06 02:54:35;;;;;;;3.15;0.68;;;9.60;99.90;;;;;;5054308;28;20053;-65
2022/04/06 02:57:04;;;;;;;7.22;1.23;;;9.60;99.90;;;;;;5054418;28;20049;-64
2022/04/06 02:59:31;;;;;;;5.88;0.98;;;9.50;99.90;;;;;;5054276;28;20045;-63
2022/04/06 03:01:59;;;;;;;2.33;0.63;;;9.50;99.90;;;;;;5053781;28;20075;-65
2022/04/06 03:04:27;;;;;;;6.82;1.27;;;9.40;99.90;;;;;;5054436;28;20400;-63
2022/04/06 03:06:54;;;;;;;8.32;0.70;;;9.40;99.90;;;;;;5054303;28;20045;-67
2022/04/06 03:09:22;;;;;;;8.32;1.10;;;9.40;99.90;;;;;;5053972;28;20400;-68
2022/04/06 03:11:50;;;;;;;1.27;0.70;;;9.30;99.90;;;;;;5053153;28;20041;-65
2022/04/06 03:14:17;;;;;;;8.93;1.02;;;9.30;99.90;;;;;;5053882;28;20056;-63
2022/04/06 03:16:45;;;;;;;7.07;1.00;;;9.30;99.90;;;;;;5054133;28;20049;-68
2022/04/06 03:19:12;;;;;;;3.20;0.70;;;9.30;99.90;;;;;;5054073;28;20055;-65
2022/04/06 03:21:40;;;;;;;6.55;0.93;;;9.30;99.90;;;;;;5053283;28;20049;-63
2022/04/06 03:24:08;;;;;;;6.25;1.25;;;9.30;99.90;;;;;;5054026;28;20048;-65
2022/04/06 03:26:36;;;;;;;9.73;1.75;;;9.30;99.90;;;;;;5052700;28;20049;-64
2022/04/06 03:29:03;;;;;;;11.40;1.33;;;9.30;99.90;;;;;;5053928;28;20049;-62
2022/04/06 03:31:31;;;;;;;6.43;0.85;;;9.30;99.90;;;;;;5052134;28;20060;-66
2022/04/06 03:33:58;;;;;;;9.88;1.35;;;9.20;99.90;;;;;;5053022;28;20045;-65
2022/04/06 03:36:26;;;;;;;8.20;1.35;;;9.30;99.90;;;;;;5053677;28;20045;-63
2022/04/06 03:38:54;;;;;;;5.85;0.90;;;9.30;99.90;;;;;;5053185;28;20037;-66
2022/04/06 03:41:22;;;;;;;4.07;0.90;;;9.30;99.90;;;;;;5053755;28;20052;-65
2022/04/06 03:43:49;;;;;;;9.38;2.75;;;9.30;99.90;;;;;;5052494;28;20053;-65
2022/04/06 03:46:17;;;;;;;8.25;1.10;;;9.30;99.90;;;;;;5053222;28;20040;-67
2022/04/06 03:48:45;;;;;;;10.77;1.02;;;9.30;99.90;;;;;;5053593;28;20052;-63
2022/04/06 03:51:12;;;;;;;11.15;1.38;;;9.30;99.90;;;;;;5053280;28;20045;-62
2022/04/06 03:53:40;;;;;;;8.85;1.33;;;9.30;99.90;;;;;;5052287;28;20048;-64
2022/04/06 03:56:07;;;;;;;6.72;0.80;;;9.20;99.90;;;;;;5052982;28;20045;-66
2022/04/06 03:58:35;;;;;;;8.00;1.02;;;9.20;99.90;;;;;;5052954;28;20377;-64
2022/04/06 04:01:03;;;;;;;6.30;1.00;;;9.20;99.90;;;;;;5053266;28;20068;-61
2022/04/06 04:03:30;;;;;;;10.35;1.45;;;9.20;99.90;;;;;;5052060;28;20057;-64
2022/04/06 04:05:58;;;;;;;5.13;1.55;;;9.10;99.90;;;;;;5053098;28;20045;-64
2022/04/06 04:08:27;;;;;;;9.35;1.10;;;9.10;99.90;;;;;;5051671;28;20044;-67
2022/04/06 04:10:55;;;;;;;9.03;1.40;;;9.10;99.90;;;;;;5053071;28;20053;-62
2022/04/06 04:13:22;;;;;;;9.27;1.23;;;9.10;99.90;;;;;;5051811;28;20755;-64
2022/04/06 04:15:51;;;;;;;6.72;0.98;;;9.10;99.90;;;;;;5052964;28;20416;-63
2022/04/06 04:18:18;;;;;;;10.52;1.75;;;9.10;99.90;;;;;;5051495;28;20048;-63
2022/04/06 04:20:46;;;;;;;6.28;1.45;;;9.10;99.90;;;;;;5051769;28;20408;-61
2022/04/06 04:23:14;;;;;;;10.98;1.17;;;9.10;99.90;;;;;;5052758;28;20048;-63
2022/04/06 04:25:42;;;;;;;14.20;1.58;;;9.10;99.90;;;;;;5052788;28;20045;-64
2022/04/06 04:28:10;;;;;;;6.80;1.20;;;9.20;99.90;;;;;;5051601;28;20045;-63
2022/04/06 04:30:37;;;;;;;11.75;1.73;;;9.10;99.90;;;;;;5052393;28;20488;-67
2022/04/06 04:33:05;;;;;;;11.00;1.05;;;9.20;99.90;;;;;;5052711;28;20044;-67
2022/04/06 04:35:33;;;;;;;10.52;1.20;;;9.20;99.90;;;;;;5052626;28;20044;-67
2022/04/06 04:38:00;;;;;;;8.52;1.05;;;9.20;99.90;;;;;;5051483;28;20057;-64
2022/04/06 04:40:29;;;;;;;11.98;1.15;;;9.20;99.90;;;;;;5052449;28;20049;-61
2022/04/06 04:42:57;;;;;;;11.43;1.27;;;9.20;99.90;;;;;;5052537;28;20053;-67
2022/04/06 04:45:30;;;;;;;9.07;1.20;;;9.20;99.90;;;;;;5052436;28;20045;-65
2022/04/06 04:47:58;;;;;;;8.85;1.00;;;9.20;99.90;;;;;;5047115;28;20503;-61
2022/04/06 04:50:26;;;;;;;13.88;1.65;;;9.20;99.90;;;;;;5049562;28;20045;-63
2022/04/06 04:52:54;;;;;;;7.15;0.93;;;9.20;99.90;;;;;;5049241;28;20049;-65
2022/04/06 04:55:22;;;;;;;11.25;1.77;;;9.20;99.90;;;;;;5049254;28;20484;-66
2022/04/06 04:57:49;;;;;;;9.77;1.35;;;9.20;99.90;;;;;;5055717;28;20052;-62
2022/04/06 05:00:17;;;;;;;6.22;0.68;;;9.20;99.90;;;;;;5051010;28;20067;-61
2022/04/06 05:02:44;;;;;;;13.45;1.42;;;9.20;99.90;;;;;;5055358;28;20052;-62
2022/04/06 05:05:12;;;;;;;3.33;0.93;;;9.20;99.90;;;;;;5064432;28;20052;-63
2022/04/06 05:07:40;;;;;;;10.45;1.25;;;9.20;99.90;;;;;;5059913;28;20055;-62
2022/04/06 05:10:09;;;;;;;12.60;1.08;;;9.10;99.90;;;;;;5068906;28;20401;-63
2022/04/06 05:12:36;;;;;;;11.13;2.55;;;9.10;99.90;;;;;;5067197;28;20059;-61
2022/04/06 05:15:06;;;;;;;16.95;1.73;;;9.20;99.90;;;;;;5068332;28;20048;-62
2022/04/06 05:17:34;;;;;;;9.85;1.58;;;9.10;99.90;;;;;;5067135;28;20419;-62
2022/04/06 05:20:04;;;;;;;8.73;1.90;;;9.10;99.90;;;;;;5066368;28;20048;-61
2022/04/06 05:22:32;;;;;;;13.02;1.52;;;9.10;99.90;;;;;;5051560;28;20071;-62
2022/04/06 05:25:00;;;;;;;12.13;2.25;;;9.10;99.90;;;;;;5045429;28;20056;-61
2022/04/06 05:27:28;;;;;;;13.55;2.00;;;9.10;99.90;;;;;;5064482;28;20045;-62
2022/04/06 05:29:56;;;;;;;9.75;1.35;;;9.10;99.90;;;;;;5066446;28;20056;-67
2022/04/06 05:32:24;;;;;;;13.27;2.40;;;9.10;99.90;;;;;;5050423;28;20040;-63
2022/04/06 05:34:51;;;;;;;12.93;1.90;;;9.10;99.90;;;;;;5063399;28;20377;-62
2022/04/06 05:37:19;;;;;;;11.00;1.00;;;9.00;99.90;;;;;;5050126;28;20053;-65
2022/04/06 05:39:46;;;;;;;14.88;2.35;;;9.00;99.90;;;;;;5051652;28;20064;-64
2022/04/06 05:42:14;;;;;;;7.93;1.50;;;9.00;99.90;;;;;;5050130;28;20036;-64
2022/04/06 05:44:42;;;;;;;9.45;1.52;;;8.90;99.90;;;;;;5068346;28;20051;-62
2022/04/06 05:47:12;;;;;;;8.13;1.35;;;8.90;99.90;;;;;;5064905;28;20495;-63
2022/04/06 05:49:40;;;;;;;6.78;1.30;;;8.90;99.90;;;;;;5062731;28;20059;-64
2022/04/06 05:52:09;;;;;;;12.45;1.85;;;8.90;99.90;;;;;;5065829;28;20407;-64
2022/04/06 05:54:37;;;;;;;8.48;1.73;;;8.90;99.90;;;;;;5067992;28;20055;-63
2022/04/06 05:57:05;;;;;;;10.07;1.63;;;8.80;99.90;;;;;;5063864;28;20044;-65
2022/04/06 05:59:33;;;;;;;6.53;1.02;;;8.80;99.90;;;;;;5064893;28;20056;-63
2022/04/06 06:02:00;;;;;;;12.55;1.55;;;8.80;99.90;;;;;;5060754;28;20488;-65
2022/04/06 06:04:28;;;;;;;12.02;1.40;;;8.80;99.90;;;;;;5045497;28;20410;-62
2022/04/06 06:06:57;;;;;;;14.73;1.23;;;8.80;99.90;;;;;;5048704;28;20255;-62
2022/04/06 06:09:25;;;;;;;8.75;0.90;;;8.70;99.90;;;;;;5054939;28;20041;-64
2022/04/06 06:11:54;;;;;;;16.25;1.42;;;8.80;99.90;;;;;;5066855;28;20045;-64
2022/04/06 06:14:22;;;;;;;9.98;1.40;;;8.80;99.90;;;;;;5065099;28;20386;-65
2022/04/06 06:16:50;;;;;;;9.38;1.33;;;8.80;99.90;;;;;;5065635;28;20072;-68
2022/04/06 06:19:18;;;;;;;9.27;1.10;;;8.70;99.90;;;;;;5066105;28;20063;-64
2022/04/06 06:21:46;;;;;;;7.38;1.10;;;8.70;99.90;;;;;;5057042;28;20045;-65
2022/04/06 06:24:14;;;;;;;9.38;1.05;;;8.70;99.90;;;;;;5046480;28;20424;-63
2022/04/06 06:26:44;;;;;;;10.75;0.90;;;8.70;99.90;;;;;;5048039;28;20048;-62
2022/04/06 06:29:12;;;;;;;10.23;1.10;;;8.70;99.90;;;;;;5065892;28;20553;-63
2022/04/06 06:31:40;;;;;;;8.10;1.20;;;8.70;99.90;;;;;;5062378;28;20072;-64
2022/04/06 06:34:08;;;;;;;11.35;1.48;;;8.70;99.90;;;;;;5058753;28;20063;-63
2022/04/06 06:36:36;;;;;;;4.63;0.45;;;8.70;99.90;;;;;;5065833;28;20479;-63
2022/04/06 06:39:04;;;;;;;9.95;1.50;;;8.70;99.90;;;;;;5065393;28;20036;-63
2022/04/06 06:41:32;;;;;;;7.63;0.88;;;8.80;99.90;;;;;;5060372;28;20052;-63
2022/04/06 06:44:04;;;;;;;9.00;1.38;;;8.80;99.90;;;;;;5055923;28;20060;-62
2022/04/06 06:46:32;;;;;;;6.28;0.77;;;8.80;99.90;;;;;;5060244;28;20049;-63
2022/04/06 06:49:03;;;;;;;12.15;1.25;;;8.80;99.90;;;;;;5046796;28;20052;-62
2022/04/06 06:51:31;;;;;;;9.45;1.23;;;8.70;99.90;;;;;;5054000;28;20052;-64
2022/04/06 06:54:00;;;;;;;9.82;1.10;;;8.80;99.90;;;;;;5066600;28;20056;-64
2022/04/06 06:56:28;;;;;;;12.25;1.83;;;8.80;99.90;;;;;;5046490;28;20404;-64
2022/04/06 06:58:55;;;;;;;7.10;0.85;;;8.80;99.90;;;;;;5058930;28;20053;-65
2022/04/06 07:01:23;;;;;;;9.15;1.13;;;8.90;99.90;;;;;;5048925;28;20484;-64
2022/04/06 07:03:51;;;;;;;9.07;1.75;;;8.90;99.90;;;;;;5053906;28;20049;-65
2022/04/06 07:06:19;;;;;;;8.80;1.00;;;9.00;99.90;;;;;;5043127;28;20041;-67
2022/04/06 07:08:46;;;;;;;7.68;1.60;;;9.00;99.90;;;;;;5061119;28;20048;-65
2022/04/06 07:11:14;;;;;;;5.40;0.80;;;9.10;99.90;;;;;;5057042;28;20076;-65
2022/04/06 07:13:42;;;;;;;7.07;1.60;;;9.10;99.90;;;;;;5053932;28;20052;-64
2022/04/06 07:16:11;;;;;;;10.63;0.70;;;9.20;99.90;;;;;;5071056;28;20056;-66
2022/04/06 07:18:38;;;;;;;6.63;0.85;;;9.30;99.90;;;;;;5069206;28;20058;-68
2022/04/06 07:21:06;;;;;;;7.72;2.03;;;9.30;99.90;;;;;;5061296;28;20045;-69
2022/04/06 07:23:34;;;;;;;9.55;2.78;;;9.40;99.90;;;;;;5064235;28;20044;-69
2022/04/06 07:26:01;;;;;;;7.93;0.80;;;9.40;99.90;;;;;;5051233;28;20060;-68
2022/04/06 07:28:29;;;;;;;6.35;0.95;;;9.40;99.90;;;;;;5056766;28;20052;-68
2022/04/06 07:30:57;;;;;;;9.00;1.00;;;9.40;99.90;;;;;;5067036;28;20053;-69
2022/04/06 07:33:30;;;;;;;7.47;0.70;;;9.40;99.90;;;;;;5059574;28;20056;-67
2022/04/06 07:35:57;;;;;;;4.20;0.63;;;9.50;99.90;;;;;;5051012;28;20045;-66
2022/04/06 07:38:25;;;;;;;10.73;1.38;;;9.50;99.90;;;;;;5068519;28;20613;-68
2022/04/06 07:40:54;;;;;;;8.02;0.93;;;9.50;99.90;;;;;;5067841;28;20048;-65
2022/04/06 07:43:22;;;;;;;5.43;0.80;;;9.50;99.90;;;;;;5065507;28;20061;-69
2022/04/06 07:45:50;;;;;;;8.30;1.13;;;9.50;99.90;;;;;;5051458;28;20048;-69
2022/04/06 07:48:18;;;;;;;4.00;0.90;;;9.50;99.90;;;;;;5055536;28;20037;-66
2022/04/06 07:50:49;;;;;;;3.90;1.05;;;9.50;99.90;;;;;;5051656;28;20044;-68
2022/04/06 07:53:17;;;;;;;6.68;0.90;;;9.50;99.90;;;;;;5059401;28;20045;-68
2022/04/06 07:55:47;;;;;;;6.28;1.42;;;9.50;99.90;;;;;;5063926;28;20049;-65
2022/04/06 07:58:15;;;;;;;;;;;9.60;99.90;;;;;;5059358;28;20047;-68
2022/04/06 08:00:43;;;;;;;6.47;0.60;;;9.50;99.90;;;;;;5059637;28;19928;-65
2022/04/06 08:03:11;;;;;;;4.18;0.70;;;9.60;99.90;;;;;;5059283;28;20064;-65
2022/04/06 08:05:39;;;;;;;4.85;1.20;;;9.60;99.90;;;;;;5048037;28;20056;-65
2022/04/06 08:08:07;;;;;;;10.50;0.98;;;9.60;99.90;;;;;;5054267;28;20041;-66
2022/04/06 08:10:35;;;;;;;4.38;0.52;;;9.60;99.90;;;;;;5067884;28;20056;-66
2022/04/06 08:13:06;;;;;;;5.95;0.93;;;9.60;99.90;;;;;;5058938;28;20048;-66
2022/04/06 08:15:34;;;;;;;7.32;0.70;;;9.60;99.90;;;;;;5049657;28;20044;-63
2022/04/06 08:18:02;;;;;;;4.03;0.57;;;9.70;99.90;;;;;;5058302;28;20052;-63
2022/04/06 08:20:29;;;;;;;8.63;1.02;;;9.70;99.90;;;;;;5068685;28;20056;-62
2022/04/06 08:22:57;;;;;;;8.27;0.80;;;9.70;99.90;;;;;;5048642;28;20064;-65
2022/04/06 08:25:25;;;;;;;9.80;0.80;;;9.60;99.90;;;;;;5069340;28;20053;-66
2022/04/06 08:28:05;;;;;;;9.75;0.55;;;9.60;99.90;;;;;;5061579;28;20037;-65
2022/04/06 08:30:39;;;;;;;8.82;1.30;;;9.60;99.90;;;;;;5051679;28;20060;-66
2022/04/06 08:33:09;;;;;;;3.17;0.63;;;9.60;99.90;;;;;;5059321;28;20063;-65
2022/04/06 08:35:37;;;;;;;5.70;0.80;;;9.50;99.90;;;;;;5067305;28;20396;-68
2022/04/06 08:38:06;;;;;;;9.90;1.13;;;9.60;99.90;;;;;;5062509;28;20068;-65
2022/04/06 08:40:35;;;;;;;6.05;0.60;;;9.60;99.90;;;;;;5062564;28;20059;-65
2022/04/06 08:43:04;;;;;;;8.10;2.05;;;9.70;99.90;;;;;;5066710;28;20051;-65
2022/04/06 08:45:33;;;;;;;13.07;2.20;;;9.80;99.90;;;;;;5064620;28;20052;-63
2022/04/06 08:48:04;;;;;;;6.72;1.33;;;9.90;99.90;;;;;;5063748;28;20472;-66
2022/04/06 08:50:34;;;;;;;6.35;0.90;;;10.20;99.90;;;;;;5049261;28;20064;-66
2022/04/06 08:53:03;;;;;;;2.83;0.57;;;10.40;99.90;;;;;;5058371;28;20048;-62
2022/04/06 08:55:32;;;;;;;4.28;0.80;;;10.50;99.90;;;;;;5068400;28;20040;-62
2022/04/06 08:58:01;;;;;;;5.95;0.80;;;10.70;99.90;;;;;;5062897;28;20049;-61
2022/04/06 09:00:30;;;;;;;7.80;0.80;;;10.80;99.90;;;;;;5058714;28;20048;-61
2022/04/06 09:02:58;;;;;;;5.25;0.65;;;10.90;99.90;;;;;;5056237;28;20075;-61
2022/04/06 09:05:32;;;;;;;9.05;0.80;;;11.00;99.90;;;;;;5048847;28;20424;-62
2022/04/06 09:08:03;;;;;;;4.47;0.50;;;11.00;99.90;;;;;;5051580;28;20041;-66
2022/04/06 09:10:33;;;;;;;5.55;1.02;;;10.90;99.90;;;;;;5051868;28;20045;-62
2022/04/06 09:13:18;;;;;;;3.65;0.60;;;10.80;99.90;;;;;;5055314;28;20036;-63
2022/04/06 09:15:45;;;;;;;4.88;1.10;;;10.70;99.90;;;;;;5053234;28;20037;-61
2022/04/06 09:18:14;;;;;;;7.68;0.65;;;10.60;99.90;;;;;;5062714;28;20108;-62
2022/04/06 09:20:42;;;;;;;6.53;0.73;;;10.50;99.90;;;;;;5054614;28;20040;-61
2022/04/06 09:23:09;;;;;;;2.15;0.73;;;10.30;99.90;;;;;;5058425;28;20063;-61
2022/04/06 09:25:39;;;;;;;6.53;1.08;;;10.10;99.90;;;;;;5052840;28;20372;-64
2022/04/06 09:28:11;;;;;;;6.28;0.52;;;9.90;99.90;;;;;;5057153;28;20037;-60
2022/04/06 09:30:44;;;;;;;2.50;0.82;;;9.70;99.90;;;;;;5043828;28;20076;-60
2022/04/06 09:33:13;;;;;;;6.45;0.80;;;9.50;99.90;;;;;;5050490;28;20052;-60
2022/04/06 09:35:41;;;;;;;5.15;1.13;;;9.30;99.90;;;;;;5062614;28;20048;-60
2022/04/06 09:38:22;;;;;;;5.20;0.82;;;9.00;99.90;;;;;;5044464;28;20044;-59
2022/04/06 09:41:01;;;;;;;5.68;1.10;;;8.90;99.90;;;;;;5044937;28;20041;-61
2022/04/06 09:43:34;;;;;;;1.15;0.30;;;8.80;99.90;;;;;;5061545;28;20055;-62
2022/04/06 09:49:09;;;;;;;3.80;0.43;;;8.50;99.90;;;;;;5059845;28;20041;-62
2022/04/06 09:51:38;;;;;;;0.08;0.08;;;8.30;99.90;;;;;;5059667;28;20059;-61
2022/04/06 09:54:07;;;;;;;2.33;0.20;;;8.30;99.90;;;;;;5067085;28;20044;-61
2022/04/06 09:56:36;;;;;;;3.83;0.65;;;8.20;99.90;;;;;;5063019;28;20059;-61
2022/04/06 09:59:09;;;;;;;2.53;0.52;;;8.10;99.90;;;;;;5067044;28;20052;-64
2022/04/06 10:01:44;;;;;;;4.60;0.77;;;8.00;99.90;;;;;;5047351;28;20049;-65
2022/04/06 10:04:18;;;;;;;2.67;0.70;;;8.00;99.90;;;;;;5050189;28;20461;-63
2022/04/06 10:06:46;;;;;;;1.42;0.28;;;8.00;99.90;;;;;;5056689;28;20055;-62
2022/04/06 10:09:14;;;;;;;1.80;0.20;;;7.90;99.90;;;;;;5062264;28;20055;-62
2022/04/06 10:11:43;;;;;;;1.42;0.30;;;8.00;99.90;;;;;;5068211;28;20397;-62
2022/04/06 10:14:11;;;;;;;0.10;0.10;;;8.00;99.90;;;;;;5065451;28;20052;-64
2022/04/06 10:16:39;;;;;;;1.27;0.13;;;7.90;99.90;;;;;;5060931;28;20067;-63
2022/04/06 10:19:15;;;;;;;4.40;0.45;;;7.90;99.90;;;;;;5060683;28;20110;-62
2022/04/06 10:21:48;;;;;;;0.28;0.13;;;7.80;99.90;;;;;;5067976;28;20618;-65
2022/04/06 10:24:51;;;;;;;0.80;0.20;;;7.80;99.90;;;;;;5062934;28;20057;-64
2022/04/06 10:27:29;;;;;;;0.28;0.10;;;7.80;99.90;;;;;;5059873;28;20052;-65
2022/04/06 10:30:16;;;;;;;0.10;0.10;;;7.80;99.90;;;;;;5060856;28;20051;-66
2022/04/06 10:32:46;;;;;;;1.52;0.20;;;7.70;99.90;;;;;;5053037;28;20045;-65
2022/04/06 10:35:31;;;;;;;1.67;0.10;;;7.70;99.90;;;;;;5063307;28;20193;-62
2022/04/06 10:37:58;;;;;;;0.38;0.10;;;7.70;99.90;;;;;;5067273;28;20048;-65
2022/04/06 10:40:49;;;;;;;0.30;0.20;;;7.70;99.90;;;;;;5066045;28;20044;-65
2022/04/06 10:43:40;;;;;;;2.10;0.30;;;7.60;99.90;;;;;;5053861;28;20033;-63
2022/04/06 10:46:09;;;;;;;1.35;0.10;;;7.60;99.90;;;;;;5053412;28;20037;-63
2022/04/06 10:49:09;;;;;;;4.38;0.20;;;7.60;99.90;;;;;;5061676;28;20055;-64
2022/04/06 10:51:38;;;;;;;;;;;7.70;99.90;;;;;;5069470;28;20048;-62
2022/04/06 10:54:15;;;;;;;0.20;0.10;;;7.90;99.90;;;;;;5054589;28;19927;-63
2022/04/06 10:56:54;;;;;;;0.30;0.20;;;7.90;99.90;;;;;;5050033;28;20049;-67
2022/04/06 10:59:29;;;;;;;1.07;0.10;;;7.90;99.90;;;;;;5067403;28;20067;-66
2022/04/06 11:02:19;;;;;;;0.80;0.20;;;7.90;99.90;;;;;;5067399;28;20037;-68
2022/04/06 11:04:49;;;;;;;0.60;0.32;;;8.10;99.90;;;;;;5056974;28;20040;-65
2022/04/06 11:10:27;;;;;;;0.40;0.10;;;8.30;99.90;;;;;;5054925;28;20053;-66
2022/04/06 11:13:14;;;;;;;1.67;0.40;;;8.40;99.90;;;;;;5052674;28;20037;-63
2022/04/06 11:15:50;;;;;;;1.75;0.20;;;8.40;99.90;;;;;;5059712;28;20636;-62
2022/04/06 11:18:43;;;;;;;1.77;0.20;;;8.40;99.90;;;;;;5058870;28;20590;-65
2022/04/06 11:21:12;;;;;;;2.25;0.30;;;8.70;99.90;;;;;;5066552;28;20512;-66
2022/04/06 11:23:40;;;;;;;3.10;0.30;;;8.70;99.90;;;;;;5058149;28;20044;-64
2022/04/06 11:26:07;;;;;;;1.75;0.15;;;9.00;99.90;;;;;;5052063;28;20064;-63
2022/04/06 11:28:35;;;;;;;1.55;0.20;;;9.20;99.90;;;;;;5059831;28;20037;-59
2022/04/06 11:31:04;;;;;;;0.08;0.08;;;9.40;99.90;;;;;;5058385;28;20060;-60
2022/04/06 11:33:42;;;;;;;1.35;0.13;;;9.50;99.90;;;;;;5061071;28;20042;-60
2022/04/06 11:36:18;;;;;;;0.98;0.10;;;9.60;99.90;;;;;;5048437;28;20044;-61
2022/04/06 11:38:50;;;;;;;1.13;0.08;;;9.70;99.90;;;;;;5048297;28;20045;-61
2022/04/06 11:41:19;;;;;;;0.10;0.10;;;9.80;99.90;;;;;;5049889;28;20052;-62
2022/04/06 11:43:50;;;;;;;0.00;0.00;;;9.90;99.90;;;;;;5062988;28;20053;-61
2022/04/06 11:46:19;;;;;;;0.15;0.10;;;10.00;99.90;;;;;;5066064;28;20037;-62
2022/04/06 11:48:47;;;;;;;2.58;0.10;;;10.10;99.90;;;;;;5055549;28;20507;-61
2022/04/06 11:51:16;;;;;;;0.00;0.00;;;10.10;99.90;;;;;;5048876;28;20045;-63
2022/04/06 11:53:44;;;;;;;0.05;0.05;;;10.20;99.90;;;;;;5049941;28;20060;-65
2022/04/06 11:56:20;;;;;;;1.02;0.20;;;10.20;99.90;;;;;;5062908;28;20055;-61
2022/04/06 11:58:55;;;;;;;1.10;0.15;;;10.30;99.90;;;;;;5068610;28;20055;-61
2022/04/06 12:01:28;;;;;;;0.20;0.10;;;10.60;99.90;;;;;;5065278;28;20057;-63
2022/04/06 12:03:58;;;;;;;0.30;0.10;;;11.10;99.90;;;;;;5052975;28;20044;-61
2022/04/06 12:06:36;;;;;;;0.80;0.17;;;11.50;99.90;;;;;;5060311;28;20041;-62
2022/04/06 12:09:06;;;;;;;0.20;0.10;;;11.60;99.90;;;;;;5058773;28;20049;-62
2022/04/06 12:11:35;;;;;;;0.15;0.10;;;11.70;99.90;;;;;;5054062;28;20067;-61
2022/04/06 12:14:04;;;;;;;1.27;0.82;;;11.70;99.90;;;;;;5064886;28;20047;-62
2022/04/06 12:16:32;;;;;;;1.13;0.28;;;12.00;99.90;;;;;;5061109;28;20056;-61
2022/04/06 12:18:59;;;;;;;0.43;0.20;;;12.30;99.90;;;;;;5064282;28;20503;-63
2022/04/06 12:21:28;;;;;;;0.43;0.10;;;12.70;99.90;;;;;;5069656;28;20048;-66
2022/04/06 12:23:56;;;;;;;0.60;0.10;;;13.10;99.90;;;;;;5054564;28;20060;-65
2022/04/06 12:26:25;;;;;;;1.13;0.17;;;13.50;99.90;;;;;;5036109;28;20051;-64
2022/04/06 12:29:00;;;;;;;1.20;0.20;;;13.80;99.90;;;;;;5063858;28;20044;-62
2022/04/06 12:31:36;;;;;;;1.23;0.30;;;14.00;99.90;;;;;;5061555;28;20684;-62
2022/04/06 12:34:04;;;;;;;1.17;0.20;;;14.30;99.90;;;;;;5057075;28;20491;-62
2022/04/06 12:36:32;;;;;;;4.57;0.40;;;14.60;99.90;;;;;;5052953;28;20049;-62
2022/04/06 12:39:13;;;;;;;4.95;0.80;;;14.70;99.90;;;;;;5054554;28;20063;-61
2022/04/06 12:41:59;;;;;;;1.63;0.30;;;14.90;99.90;;;;;;5049086;28;20045;-62
2022/04/06 12:44:29;;;;;;;5.45;0.30;;;15.00;99.90;;;;;;5068904;28;20045;-62
2022/04/06 12:46:57;;;;;;;2.63;0.30;;;14.80;99.90;;;;;;5057400;28;20056;-61
2022/04/06 12:49:42;;;;;;;1.50;0.25;;;14.50;99.90;;;;;;5053581;28;20048;-62
2022/04/06 12:52:26;;;;;;;2.28;0.30;;;14.30;99.90;;;;;;5049734;28;20045;-61
2022/04/06 12:55:01;;;;;;;2.92;0.28;;;14.30;99.90;;;;;;5068927;28;20040;-62
2022/04/06 12:57:30;;;;;;;6.00;0.47;;;14.40;99.90;;;;;;5064241;28;20055;-61
2022/04/06 13:00:13;;;;;;;7.68;0.80;;;14.50;99.90;;;;;;5056619;28;20048;-62
2022/04/06 13:02:51;;;;;;;4.90;0.95;;;14.60;99.90;;;;;;5053789;28;20045;-62
2022/04/06 13:05:21;;;;;;;2.40;0.20;;;15.00;99.90;;;;;;5047521;28;20048;-61
2022/04/06 13:07:51;;;;;;;3.42;0.22;;;15.20;99.90;;;;;;5049065;28;20053;-61
2022/04/06 13:10:20;;;;;;;3.80;0.57;;;15.00;99.90;;;;;;5048891;28;20048;-61
2022/04/06 13:12:49;;;;;;;3.20;0.30;;;14.80;99.90;;;;;;5053422;28;20051;-63
2022/04/06 13:15:18;;;;;;;1.55;0.10;;;14.50;99.90;;;;;;5065633;28;20048;-64
2022/04/06 13:17:47;;;;;;;1.42;0.32;;;14.20;99.90;;;;;;5034906;28;20049;-61